sensor_id;sensor_type;location;lat;lon;timestamp;temperature;humidity
15991;DHT22;8100;50.994;4.538;2023-05-07T00:01:39;14.70;99.90
15991;DHT22;8100;50.994;4.538;2023-05-07T00:04:07;14.70;99.90
15991;DHT22;8100;50.994;4.538;2023-05-07T00:06:34;14.80;99.90
15991;DHT22;8100;50.994;4.538;2023-05-07T00:09:02;14.80;99.90
15991;DHT22;8100;50.994;4.538;2023-05-07T00:11:30;14.90;99.90
15991;DHT22;8100;50.994;4.538;2023-05-07T00:13:57;14.80;99.90
15991;DHT22;8100;50.994;4.538;2023-05-07T00:16:24;14.80;99.90
15991;DHT22;8100;50.994;4.538;2023-05-07T00:18:52;14.90;99.90
15991;DHT22;8100;50.994;4.538;2023-05-07T00:21:20;14.80;99.90
15991;DHT22;8100;50.994;4.538;2023-05-07T00:23:47;14.70;99.90
15991;DHT22;8100;50.994;4.538;2023-05-07T00:26:14;14.70;99.90
15991;DHT22;8100;50.994;4.538;2023-05-07T00:28:41;14.70;99.90
15991;DHT22;8100;50.994;4.538;2023-05-07T00:31:09;14.70;99.90
15991;DHT22;8100;50.994;4.538;2023-05-07T00:33:36;14.70;99.90
15991;DHT22;8100;50.994;4.538;2023-05-07T00:36:03;14.70;99.90
15991;DHT22;8100;50.994;4.538;2023-05-07T00:38:32;14.70;99.90
15991;DHT22;8100;50.994;4.538;2023-05-07T00:40:58;14.70;99.90
15991;DHT22;8100;50.994;4.538;2023-05-07T00:43:25;14.70;99.90
15991;DHT22;8100;50.994;4.538;2023-05-07T00:45:53;14.70;99.90
15991;DHT22;8100;50.994;4.538;2023-05-07T00:48:20;14.70;99.90
15991;DHT22;8100;50.994;4.538;2023-05-07T00:50:49;14.70;99.90
15991;DHT22;8100;50.994;4.538;2023-05-07T00:53:17;14.70;99.90
15991;DHT22;8100;50.994;4.538;2023-05-07T00:55:45;14.70;99.90
15991;DHT22;8100;50.994;4.538;2023-05-07T00:58:13;14.70;99.90
15991;DHT22;8100;50.994;4.538;2023-05-07T01:00:40;14.60;99.90
15991;DHT22;8100;50.994;4.538;2023-05-07T01:03:07;14.60;99.90
15991;DHT22;8100;50.994;4.538;2023-05-07T01:05:34;14.70;99.90
15991;DHT22;8100;50.994;4.538;2023-05-07T01:08:02;14.60;99.90
15991;DHT22;8100;50.994;4.538;2023-05-07T01:10:31;14.60;99.90
15991;DHT22;8100;50.994;4.538;2023-05-07T01:12:59;14.60;99.90
15991;DHT22;8100;50.994;4.538;2023-05-07T01:15:27;14.60;99.90
15991;DHT22;8100;50.994;4.538;2023-05-07T01:17:54;14.50;99.90
15991;DHT22;8100;50.994;4.538;2023-05-07T01:20:23;14.60;99.90
15991;DHT22;8100;50.994;4.538;2023-05-07T01:22:51;14.50;99.90
15991;DHT22;8100;50.994;4.538;2023-05-07T01:25:18;14.50;99.90
15991;DHT22;8100;50.994;4.538;2023-05-07T01:27:45;14.50;99.90
15991;DHT22;8100;50.994;4.538;2023-05-07T01:30:12;14.50;99.90
15991;DHT22;8100;50.994;4.538;2023-05-07T01:32:42;14.50;99.90
15991;DHT22;8100;50.994;4.538;2023-05-07T01:35:12;14.50;99.90
15991;DHT22;8100;50.994;4.538;2023-05-07T01:37:41;14.50;99.90
15991;DHT22;8100;50.994;4.538;2023-05-07T01:40:10;14.50;99.90
15991;DHT22;8100;50.994;4.538;2023-05-07T01:42:37;14.50;99.90
15991;DHT22;8100;50.994;4.538;2023-05-07T01:45:05;14.40;99.90
15991;DHT22;8100;50.994;4.538;2023-05-07T01:47:33;14.40;99.90
15991;DHT22;8100;50.994;4.538;2023-05-07T01:50:00;14.40;99.90
15991;DHT22;8100;50.994;4.538;2023-05-07T01:52:28;14.40;99.90
15991;DHT22;8100;50.994;4.538;2023-05-07T01:54:55;14.40;99.90
15991;DHT22;8100;50.994;4.538;2023-05-07T01:57:24;14.40;99.90
15991;DHT22;8100;50.994;4.538;2023-05-07T01:59:50;14.40;99.90
15991;DHT22;8100;50.994;4.538;2023-05-07T02:02:17;14.40;99.90
15991;DHT22;8100;50.994;4.538;2023-05-07T02:04:44;14.40;99.90
15991;DHT22;8100;50.994;4.538;2023-05-07T02:07:11;14.30;99.90
15991;DHT22;8100;50.994;4.538;2023-05-07T02:09:38;14.30;99.90
15991;DHT22;8100;50.994;4.538;2023-05-07T02:12:05;14.30;99.90
15991;DHT22;8100;50.994;4.538;2023-05-07T02:14:34;14.30;99.90
15991;DHT22;8100;50.994;4.538;2023-05-07T02:17:01;14.20;99.90
15991;DHT22;8100;50.994;4.538;2023-05-07T02:19:28;14.30;99.90
15991;DHT22;8100;50.994;4.538;2023-05-07T02:21:54;14.30;99.90
15991;DHT22;8100;50.994;4.538;2023-05-07T02:24:21;14.30;99.90
15991;DHT22;8100;50.994;4.538;2023-05-07T02:26:48;14.20;99.90
15991;DHT22;8100;50.994;4.538;2023-05-07T02:29:15;14.20;99.90
15991;DHT22;8100;50.994;4.538;2023-05-07T02:31:44;14.20;99.90
15991;DHT22;8100;50.994;4.538;2023-05-07T02:34:11;14.20;99.90
15991;DHT22;8100;50.994;4.538;2023-05-07T02:36:38;14.10;99.90
15991;DHT22;8100;50.994;4.538;2023-05-07T02:39:05;14.10;99.90
15991;DHT22;8100;50.994;4.538;2023-05-07T02:41:32;14.10;99.90
15991;DHT22;8100;50.994;4.538;2023-05-07T02:43:59;14.10;99.90
15991;DHT22;8100;50.994;4.538;2023-05-07T02:46:26;14.10;99.90
15991;DHT22;8100;50.994;4.538;2023-05-07T02:48:54;14.10;99.90
15991;DHT22;8100;50.994;4.538;2023-05-07T02:51:22;14.10;99.90
15991;DHT22;8100;50.994;4.538;2023-05-07T02:53:49;14.10;99.90
15991;DHT22;8100;50.994;4.538;2023-05-07T02:56:16;14.00;99.90
15991;DHT22;8100;50.994;4.538;2023-05-07T02:58:43;14.00;99.90
15991;DHT22;8100;50.994;4.538;2023-05-07T03:01:10;14.00;99.90
15991;DHT22;8100;50.994;4.538;2023-05-07T03:03:39;13.90;99.90
15991;DHT22;8100;50.994;4.538;2023-05-07T03:06:08;13.70;99.90
15991;DHT22;8100;50.994;4.538;2023-05-07T03:08:35;13.70;99.90
15991;DHT22;8100;50.994;4.538;2023-05-07T03:11:02;13.60;99.90
15991;DHT22;8100;50.994;4.538;2023-05-07T03:13:29;13.70;99.90
15991;DHT22;8100;50.994;4.538;2023-05-07T03:15:56;13.70;99.90
15991;DHT22;8100;50.994;4.538;2023-05-07T03:18:23;13.80;99.90
15991;DHT22;8100;50.994;4.538;2023-05-07T03:20:50;13.90;99.90
15991;DHT22;8100;50.994;4.538;2023-05-07T03:23:18;14.10;99.90
15991;DHT22;8100;50.994;4.538;2023-05-07T03:25:45;13.90;99.90
15991;DHT22;8100;50.994;4.538;2023-05-07T03:28:12;14.10;99.90
15991;DHT22;8100;50.994;4.538;2023-05-07T03:30:39;14.10;99.90
15991;DHT22;8100;50.994;4.538;2023-05-07T03:33:06;14.00;99.90
15991;DHT22;8100;50.994;4.538;2023-05-07T03:35:33;14.10;99.90
15991;DHT22;8100;50.994;4.538;2023-05-07T03:38:00;14.10;99.90
15991;DHT22;8100;50.994;4.538;2023-05-07T03:40:29;14.10;99.90
15991;DHT22;8100;50.994;4.538;2023-05-07T03:42:56;14.10;99.90
15991;DHT22;8100;50.994;4.538;2023-05-07T03:45:23;14.00;99.90
15991;DHT22;8100;50.994;4.538;2023-05-07T03:47:50;14.10;99.90
15991;DHT22;8100;50.994;4.538;2023-05-07T03:50:17;14.10;99.90
15991;DHT22;8100;50.994;4.538;2023-05-07T03:52:44;14.20;99.90
15991;DHT22;8100;50.994;4.538;2023-05-07T03:55:11;14.10;99.90
15991;DHT22;8100;50.994;4.538;2023-05-07T03:57:39;14.00;99.90
15991;DHT22;8100;50.994;4.538;2023-05-07T04:00:07;14.10;99.90
15991;DHT22;8100;50.994;4.538;2023-05-07T04:02:34;14.10;99.90
15991;DHT22;8100;50.994;4.538;2023-05-07T04:05:01;14.00;99.90
15991;DHT22;8100;50.994;4.538;2023-05-07T04:07:28;14.20;99.90
15991;DHT22;8100;50.994;4.538;2023-05-07T04:09:55;14.00;99.90
15991;DHT22;8100;50.994;4.538;2023-05-07T04:12:22;14.20;99.90
15991;DHT22;8100;50.994;4.538;2023-05-07T04:14:50;14.00;99.90
15991;DHT22;8100;50.994;4.538;2023-05-07T04:17:17;14.20;99.90
15991;DHT22;8100;50.994;4.538;2023-05-07T04:19:44;14.10;99.90
15991;DHT22;8100;50.994;4.538;2023-05-07T04:22:12;14.20;99.90
15991;DHT22;8100;50.994;4.538;2023-05-07T04:24:39;14.10;99.90
15991;DHT22;8100;50.994;4.538;2023-05-07T04:27:06;14.20;99.90
15991;DHT22;8100;50.994;4.538;2023-05-07T04:29:33;14.10;99.90
15991;DHT22;8100;50.994;4.538;2023-05-07T04:32:02;14.10;99.90
15991;DHT22;8100;50.994;4.538;2023-05-07T04:34:29;14.20;99.90
15991;DHT22;8100;50.994;4.538;2023-05-07T04:36:58;14.20;99.90
15991;DHT22;8100;50.994;4.538;2023-05-07T04:39:25;14.10;99.90
15991;DHT22;8100;50.994;4.538;2023-05-07T04:41:52;14.10;99.90
15991;DHT22;8100;50.994;4.538;2023-05-07T04:44:19;14.10;99.90
15991;DHT22;8100;50.994;4.538;2023-05-07T04:46:46;14.10;99.90
15991;DHT22;8100;50.994;4.538;2023-05-07T04:49:14;14.30;99.90
15991;DHT22;8100;50.994;4.538;2023-05-07T04:51:41;14.20;99.90
15991;DHT22;8100;50.994;4.538;2023-05-07T04:54:08;14.40;99.90
15991;DHT22;8100;50.994;4.538;2023-05-07T04:56:36;14.30;99.90
15991;DHT22;8100;50.994;4.538;2023-05-07T04:59:03;14.50;99.90
15991;DHT22;8100;50.994;4.538;2023-05-07T05:01:30;14.50;99.90
15991;DHT22;8100;50.994;4.538;2023-05-07T05:03:57;14.50;99.90
15991;DHT22;8100;50.994;4.538;2023-05-07T05:06:26;14.40;99.90
15991;DHT22;8100;50.994;4.538;2023-05-07T05:08:53;14.50;99.90
15991;DHT22;8100;50.994;4.538;2023-05-07T05:11:21;14.50;99.90
15991;DHT22;8100;50.994;4.538;2023-05-07T05:13:48;14.60;99.90
15991;DHT22;8100;50.994;4.538;2023-05-07T05:16:15;14.50;99.90
15991;DHT22;8100;50.994;4.538;2023-05-07T05:18:42;14.60;99.90
15991;DHT22;8100;50.994;4.538;2023-05-07T05:21:09;14.50;99.90
15991;DHT22;8100;50.994;4.538;2023-05-07T05:23:37;14.60;99.90
15991;DHT22;8100;50.994;4.538;2023-05-07T05:26:04;14.70;99.90
15991;DHT22;8100;50.994;4.538;2023-05-07T05:28:31;14.70;99.90
15991;DHT22;8100;50.994;4.538;2023-05-07T05:30:58;14.90;99.90
15991;DHT22;8100;50.994;4.538;2023-05-07T05:33:25;14.90;99.90
15991;DHT22;8100;50.994;4.538;2023-05-07T05:35:53;14.90;99.90
15991;DHT22;8100;50.994;4.538;2023-05-07T05:38:20;15.10;99.90
15991;DHT22;8100;50.994;4.538;2023-05-07T05:40:48;15.30;99.90
15991;DHT22;8100;50.994;4.538;2023-05-07T05:43:15;15.30;99.90
15991;DHT22;8100;50.994;4.538;2023-05-07T05:45:42;15.40;99.90
15991;DHT22;8100;50.994;4.538;2023-05-07T05:48:09;15.40;99.90
15991;DHT22;8100;50.994;4.538;2023-05-07T05:50:36;15.50;99.90
15991;DHT22;8100;50.994;4.538;2023-05-07T05:53:03;15.40;99.90
15991;DHT22;8100;50.994;4.538;2023-05-07T05:55:30;15.50;99.90
15991;DHT22;8100;50.994;4.538;2023-05-07T05:58:00;15.50;99.90
15991;DHT22;8100;50.994;4.538;2023-05-07T06:00:27;15.60;99.90
15991;DHT22;8100;50.994;4.538;2023-05-07T06:02:54;15.60;99.90
15991;DHT22;8100;50.994;4.538;2023-05-07T06:05:21;15.60;99.90
15991;DHT22;8100;50.994;4.538;2023-05-07T06:07:48;15.70;99.90
15991;DHT22;8100;50.994;4.538;2023-05-07T06:10:15;15.70;99.90
15991;DHT22;8100;50.994;4.538;2023-05-07T06:12:42;15.80;99.90
15991;DHT22;8100;50.994;4.538;2023-05-07T06:15:11;15.70;99.90
15991;DHT22;8100;50.994;4.538;2023-05-07T06:17:38;15.80;99.90
15991;DHT22;8100;50.994;4.538;2023-05-07T06:20:06;15.80;99.90
15991;DHT22;8100;50.994;4.538;2023-05-07T06:22:33;15.70;99.90
15991;DHT22;8100;50.994;4.538;2023-05-07T06:25:00;15.70;99.90
15991;DHT22;8100;50.994;4.538;2023-05-07T06:27:27;15.70;99.90
15991;DHT22;8100;50.994;4.538;2023-05-07T06:29:54;15.70;99.90
15991;DHT22;8100;50.994;4.538;2023-05-07T06:32:23;15.80;99.90
15991;DHT22;8100;50.994;4.538;2023-05-07T06:34:50;15.70;99.90
15991;DHT22;8100;50.994;4.538;2023-05-07T06:37:16;15.50;99.90
15991;DHT22;8100;50.994;4.538;2023-05-07T06:39:43;15.40;99.90
15991;DHT22;8100;50.994;4.538;2023-05-07T06:42:10;15.30;99.90
15991;DHT22;8100;50.994;4.538;2023-05-07T06:44:37;15.30;99.90
15991;DHT22;8100;50.994;4.538;2023-05-07T06:47:04;15.30;99.90
15991;DHT22;8100;50.994;4.538;2023-05-07T06:49:33;15.40;99.90
15991;DHT22;8100;50.994;4.538;2023-05-07T06:52:00;15.50;99.90
15991;DHT22;8100;50.994;4.538;2023-05-07T06:54:27;15.60;99.90
15991;DHT22;8100;50.994;4.538;2023-05-07T06:56:54;15.60;99.90
15991;DHT22;8100;50.994;4.538;2023-05-07T06:59:21;15.60;99.90
15991;DHT22;8100;50.994;4.538;2023-05-07T07:01:48;15.60;99.90
15991;DHT22;8100;50.994;4.538;2023-05-07T07:04:15;15.70;99.90
15991;DHT22;8100;50.994;4.538;2023-05-07T07:06:43;15.70;99.90
15991;DHT22;8100;50.994;4.538;2023-05-07T07:09:10;15.70;99.90
15991;DHT22;8100;50.994;4.538;2023-05-07T07:11:37;15.80;99.90
15991;DHT22;8100;50.994;4.538;2023-05-07T07:14:05;15.80;99.90
15991;DHT22;8100;50.994;4.538;2023-05-07T07:16:32;15.90;99.90
15991;DHT22;8100;50.994;4.538;2023-05-07T07:18:59;16.00;99.90
15991;DHT22;8100;50.994;4.538;2023-05-07T07:21:26;15.90;99.90
15991;DHT22;8100;50.994;4.538;2023-05-07T07:23:54;15.90;99.90
15991;DHT22;8100;50.994;4.538;2023-05-07T07:26:21;15.90;99.90
15991;DHT22;8100;50.994;4.538;2023-05-07T07:28:48;15.90;99.90
15991;DHT22;8100;50.994;4.538;2023-05-07T07:31:15;15.80;99.90
15991;DHT22;8100;50.994;4.538;2023-05-07T07:33:42;15.90;99.90
15991;DHT22;8100;50.994;4.538;2023-05-07T07:36:09;15.90;99.90
15991;DHT22;8100;50.994;4.538;2023-05-07T07:38:36;15.80;99.90
15991;DHT22;8100;50.994;4.538;2023-05-07T07:41:05;15.70;99.90
15991;DHT22;8100;50.994;4.538;2023-05-07T07:43:34;15.60;99.90
15991;DHT22;8100;50.994;4.538;2023-05-07T07:46:01;15.60;99.90
15991;DHT22;8100;50.994;4.538;2023-05-07T07:48:28;15.60;99.90
15991;DHT22;8100;50.994;4.538;2023-05-07T07:50:55;15.50;99.90
15991;DHT22;8100;50.994;4.538;2023-05-07T07:53:22;15.50;99.90
15991;DHT22;8100;50.994;4.538;2023-05-07T07:55:50;15.40;99.90
15991;DHT22;8100;50.994;4.538;2023-05-07T07:58:18;15.50;99.90
15991;DHT22;8100;50.994;4.538;2023-05-07T08:00:45;15.60;99.90
15991;DHT22;8100;50.994;4.538;2023-05-07T08:03:12;15.50;99.90
15991;DHT22;8100;50.994;4.538;2023-05-07T08:05:42;15.40;99.90
15991;DHT22;8100;50.994;4.538;2023-05-07T08:08:09;15.40;99.90
15991;DHT22;8100;50.994;4.538;2023-05-07T08:10:36;15.50;99.90
15991;DHT22;8100;50.994;4.538;2023-05-07T08:13:05;15.60;99.90
15991;DHT22;8100;50.994;4.538;2023-05-07T08:15:33;15.60;99.90
15991;DHT22;8100;50.994;4.538;2023-05-07T08:18:01;15.50;99.90
15991;DHT22;8100;50.994;4.538;2023-05-07T08:20:28;15.40;99.90
15991;DHT22;8100;50.994;4.538;2023-05-07T08:22:55;15.30;99.90
15991;DHT22;8100;50.994;4.538;2023-05-07T08:25:22;15.30;99.90
15991;DHT22;8100;50.994;4.538;2023-05-07T08:27:49;15.40;99.90
15991;DHT22;8100;50.994;4.538;2023-05-07T08:30:16;15.30;99.90
15991;DHT22;8100;50.994;4.538;2023-05-07T08:32:44;15.40;99.90
15991;DHT22;8100;50.994;4.538;2023-05-07T08:35:11;15.60;99.90
15991;DHT22;8100;50.994;4.538;2023-05-07T08:37:38;15.70;99.90
15991;DHT22;8100;50.994;4.538;2023-05-07T08:40:06;15.70;99.90
15991;DHT22;8100;50.994;4.538;2023-05-07T08:42:35;15.80;99.90
15991;DHT22;8100;50.994;4.538;2023-05-07T08:45:04;15.70;99.90
15991;DHT22;8100;50.994;4.538;2023-05-07T08:47:42;15.70;99.90
15991;DHT22;8100;50.994;4.538;2023-05-07T08:50:12;15.80;99.90
15991;DHT22;8100;50.994;4.538;2023-05-07T08:52:39;15.70;99.90
15991;DHT22;8100;50.994;4.538;2023-05-07T08:55:07;15.70;99.90
15991;DHT22;8100;50.994;4.538;2023-05-07T08:57:35;16.10;99.90
15991;DHT22;8100;50.994;4.538;2023-05-07T09:00:02;15.90;99.90
15991;DHT22;8100;50.994;4.538;2023-05-07T09:02:29;15.80;99.90
15991;DHT22;8100;50.994;4.538;2023-05-07T09:04:56;15.70;99.90
15991;DHT22;8100;50.994;4.538;2023-05-07T09:07:25;15.90;99.90
15991;DHT22;8100;50.994;4.538;2023-05-07T09:09:52;15.90;99.90
15991;DHT22;8100;50.994;4.538;2023-05-07T09:12:21;15.90;99.90
15991;DHT22;8100;50.994;4.538;2023-05-07T09:14:48;15.90;99.90
15991;DHT22;8100;50.994;4.538;2023-05-07T09:17:15;15.70;99.90
15991;DHT22;8100;50.994;4.538;2023-05-07T09:19:44;15.90;99.90
15991;DHT22;8100;50.994;4.538;2023-05-07T09:22:11;16.00;99.90
15991;DHT22;8100;50.994;4.538;2023-05-07T09:24:40;15.90;99.90
15991;DHT22;8100;50.994;4.538;2023-05-07T09:27:07;16.10;99.90
15991;DHT22;8100;50.994;4.538;2023-05-07T09:29:59;16.30;99.90
15991;DHT22;8100;50.994;4.538;2023-05-07T09:32:46;16.20;99.90
15991;DHT22;8100;50.994;4.538;2023-05-07T09:35:33;16.30;99.90
15991;DHT22;8100;50.994;4.538;2023-05-07T09:38:21;16.00;99.90
15991;DHT22;8100;50.994;4.538;2023-05-07T09:41:11;16.30;99.90
15991;DHT22;8100;50.994;4.538;2023-05-07T09:43:59;16.30;99.90
15991;DHT22;8100;50.994;4.538;2023-05-07T09:46:54;16.20;99.90
15991;DHT22;8100;50.994;4.538;2023-05-07T09:49:47;16.00;99.90
15991;DHT22;8100;50.994;4.538;2023-05-07T09:52:34;16.20;99.90
15991;DHT22;8100;50.994;4.538;2023-05-07T09:55:22;16.10;99.90
15991;DHT22;8100;50.994;4.538;2023-05-07T09:58:12;16.50;99.90
15991;DHT22;8100;50.994;4.538;2023-05-07T10:01:02;16.40;99.90
15991;DHT22;8100;50.994;4.538;2023-05-07T10:03:51;16.20;99.90
15991;DHT22;8100;50.994;4.538;2023-05-07T10:06:39;16.40;99.90
15991;DHT22;8100;50.994;4.538;2023-05-07T10:09:28;16.30;99.90
15991;DHT22;8100;50.994;4.538;2023-05-07T10:12:16;16.40;99.90
15991;DHT22;8100;50.994;4.538;2023-05-07T10:15:07;16.40;99.90
15991;DHT22;8100;50.994;4.538;2023-05-07T10:17:55;16.50;99.90
15991;DHT22;8100;50.994;4.538;2023-05-07T10:20:23;16.60;99.90
15991;DHT22;8100;50.994;4.538;2023-05-07T10:22:52;16.50;99.90
15991;DHT22;8100;50.994;4.538;2023-05-07T10:25:25;16.30;99.90
15991;DHT22;8100;50.994;4.538;2023-05-07T10:28:09;16.60;99.90
15991;DHT22;8100;50.994;4.538;2023-05-07T10:30:47;16.30;99.90
15991;DHT22;8100;50.994;4.538;2023-05-07T10:33:22;16.60;99.90
15991;DHT22;8100;50.994;4.538;2023-05-07T10:35:50;16.70;99.90
15991;DHT22;8100;50.994;4.538;2023-05-07T10:38:27;16.50;99.90
15991;DHT22;8100;50.994;4.538;2023-05-07T10:41:13;16.50;99.90
15991;DHT22;8100;50.994;4.538;2023-05-07T10:44:00;16.50;99.90
15991;DHT22;8100;50.994;4.538;2023-05-07T10:47:07;16.50;99.90
15991;DHT22;8100;50.994;4.538;2023-05-07T10:50:20;16.50;99.90
15991;DHT22;8100;50.994;4.538;2023-05-07T10:53:22;16.70;99.90
15991;DHT22;8100;50.994;4.538;2023-05-07T10:56:26;16.70;99.90
15991;DHT22;8100;50.994;4.538;2023-05-07T10:59:35;16.90;99.90
15991;DHT22;8100;50.994;4.538;2023-05-07T11:05:46;16.80;99.90
15991;DHT22;8100;50.994;4.538;2023-05-07T11:08:54;16.80;99.90
15991;DHT22;8100;50.994;4.538;2023-05-07T11:11:45;17.00;99.90
15991;DHT22;8100;50.994;4.538;2023-05-07T11:14:45;17.00;99.90
15991;DHT22;8100;50.994;4.538;2023-05-07T11:17:33;16.90;99.90
15991;DHT22;8100;50.994;4.538;2023-05-07T11:20:22;17.00;99.90
15991;DHT22;8100;50.994;4.538;2023-05-07T11:23:59;17.00;99.90
15991;DHT22;8100;50.994;4.538;2023-05-07T11:26:48;16.90;99.90
15991;DHT22;8100;50.994;4.538;2023-05-07T11:29:35;16.90;99.90
15991;DHT22;8100;50.994;4.538;2023-05-07T11:32:23;17.10;99.90
15991;DHT22;8100;50.994;4.538;2023-05-07T11:35:11;17.10;99.90
15991;DHT22;8100;50.994;4.538;2023-05-07T11:37:59;17.10;99.90
15991;DHT22;8100;50.994;4.538;2023-05-07T11:40:52;17.50;99.90
15991;DHT22;8100;50.994;4.538;2023-05-07T11:43:54;17.40;99.90
15991;DHT22;8100;50.994;4.538;2023-05-07T11:46:43;17.50;99.90
15991;DHT22;8100;50.994;4.538;2023-05-07T11:49:31;17.20;99.90
15991;DHT22;8100;50.994;4.538;2023-05-07T11:52:20;17.30;99.90
15991;DHT22;8100;50.994;4.538;2023-05-07T11:55:08;17.20;99.90
15991;DHT22;8100;50.994;4.538;2023-05-07T11:57:57;17.30;99.90
15991;DHT22;8100;50.994;4.538;2023-05-07T12:00:48;17.30;99.90
15991;DHT22;8100;50.994;4.538;2023-05-07T12:03:36;17.80;99.90
15991;DHT22;8100;50.994;4.538;2023-05-07T12:06:24;17.90;99.90
15991;DHT22;8100;50.994;4.538;2023-05-07T12:09:11;17.90;99.90
15991;DHT22;8100;50.994;4.538;2023-05-07T12:12:03;17.80;99.90
15991;DHT22;8100;50.994;4.538;2023-05-07T12:14:52;17.70;99.90
15991;DHT22;8100;50.994;4.538;2023-05-07T12:17:40;18.10;99.90
15991;DHT22;8100;50.994;4.538;2023-05-07T12:20:27;18.20;99.90
15991;DHT22;8100;50.994;4.538;2023-05-07T12:23:15;18.10;99.90
15991;DHT22;8100;50.994;4.538;2023-05-07T12:26:03;18.30;99.90
15991;DHT22;8100;50.994;4.538;2023-05-07T12:28:50;18.40;99.90
15991;DHT22;8100;50.994;4.538;2023-05-07T12:31:42;18.60;99.90
15991;DHT22;8100;50.994;4.538;2023-05-07T12:34:29;18.90;99.90
15991;DHT22;8100;50.994;4.538;2023-05-07T12:37:23;18.70;99.90
15991;DHT22;8100;50.994;4.538;2023-05-07T12:40:11;18.90;99.90
15991;DHT22;8100;50.994;4.538;2023-05-07T12:42:59;18.70;99.90
15991;DHT22;8100;50.994;4.538;2023-05-07T12:45:48;18.40;99.90
15991;DHT22;8100;50.994;4.538;2023-05-07T12:48:38;18.30;99.90
15991;DHT22;8100;50.994;4.538;2023-05-07T12:51:27;18.70;99.90
15991;DHT22;8100;50.994;4.538;2023-05-07T12:54:28;19.30;99.90
15991;DHT22;8100;50.994;4.538;2023-05-07T12:57:19;19.70;99.90
15991;DHT22;8100;50.994;4.538;2023-05-07T13:00:08;19.60;72.50
15991;DHT22;8100;50.994;4.538;2023-05-07T13:02:38;19.50;73.60
15991;DHT22;8100;50.994;4.538;2023-05-07T13:05:07;19.40;89.90
15991;DHT22;8100;50.994;4.538;2023-05-07T13:07:34;19.40;99.90
15991;DHT22;8100;50.994;4.538;2023-05-07T13:10:02;19.70;99.80
15991;DHT22;8100;50.994;4.538;2023-05-07T13:12:30;19.70;99.90
15991;DHT22;8100;50.994;4.538;2023-05-07T13:14:57;19.90;51.60
15991;DHT22;8100;50.994;4.538;2023-05-07T13:17:24;19.90;1.00
15991;DHT22;8100;50.994;4.538;2023-05-07T13:19:51;19.80;40.80
15991;DHT22;8100;50.994;4.538;2023-05-07T13:22:20;19.90;85.20
15991;DHT22;8100;50.994;4.538;2023-05-07T13:24:46;19.80;54.50
15991;DHT22;8100;50.994;4.538;2023-05-07T13:27:13;19.80;94.50
15991;DHT22;8100;50.994;4.538;2023-05-07T13:29:41;19.70;27.80
15991;DHT22;8100;50.994;4.538;2023-05-07T13:32:08;19.80;15.70
15991;DHT22;8100;50.994;4.538;2023-05-07T13:34:34;19.90;55.20
15991;DHT22;8100;50.994;4.538;2023-05-07T13:37:02;20.30;1.00
15991;DHT22;8100;50.994;4.538;2023-05-07T13:39:33;20.00;1.00
15991;DHT22;8100;50.994;4.538;2023-05-07T13:42:00;19.60;3.80
15991;DHT22;8100;50.994;4.538;2023-05-07T13:44:46;19.50;16.40
15991;DHT22;8100;50.994;4.538;2023-05-07T13:47:33;19.90;39.30
15991;DHT22;8100;50.994;4.538;2023-05-07T13:50:21;20.10;1.00
15991;DHT22;8100;50.994;4.538;2023-05-07T13:53:08;20.20;1.00
15991;DHT22;8100;50.994;4.538;2023-05-07T13:55:57;20.30;1.00
15991;DHT22;8100;50.994;4.538;2023-05-07T13:58:44;20.50;1.00
15991;DHT22;8100;50.994;4.538;2023-05-07T14:01:32;20.40;1.00
15991;DHT22;8100;50.994;4.538;2023-05-07T14:04:19;20.20;4.60
15991;DHT22;8100;50.994;4.538;2023-05-07T14:07:06;19.80;1.00
15991;DHT22;8100;50.994;4.538;2023-05-07T14:09:54;19.80;9.90
15991;DHT22;8100;50.994;4.538;2023-05-07T14:12:44;19.70;1.00
15991;DHT22;8100;50.994;4.538;2023-05-07T14:15:31;19.80;23.50
15991;DHT22;8100;50.994;4.538;2023-05-07T14:18:18;19.80;1.00
15991;DHT22;8100;50.994;4.538;2023-05-07T14:21:06;19.70;1.50
15991;DHT22;8100;50.994;4.538;2023-05-07T14:23:55;19.60;12.80
15991;DHT22;8100;50.994;4.538;2023-05-07T14:26:43;19.60;49.90
15991;DHT22;8100;50.994;4.538;2023-05-07T14:29:32;19.60;31.30
15991;DHT22;8100;50.994;4.538;2023-05-07T14:32:21;19.60;6.90
15991;DHT22;8100;50.994;4.538;2023-05-07T14:35:08;19.60;9.30
15991;DHT22;8100;50.994;4.538;2023-05-07T14:37:56;19.60;1.00
15991;DHT22;8100;50.994;4.538;2023-05-07T14:40:44;19.60;35.70
15991;DHT22;8100;50.994;4.538;2023-05-07T14:43:31;19.90;1.00
15991;DHT22;8100;50.994;4.538;2023-05-07T14:46:26;20.00;1.00
15991;DHT22;8100;50.994;4.538;2023-05-07T14:49:14;20.20;1.00
15991;DHT22;8100;50.994;4.538;2023-05-07T14:52:03;20.50;1.00
15991;DHT22;8100;50.994;4.538;2023-05-07T14:54:52;20.70;1.00
15991;DHT22;8100;50.994;4.538;2023-05-07T14:57:39;20.70;1.00
15991;DHT22;8100;50.994;4.538;2023-05-07T15:00:26;20.60;1.00
15991;DHT22;8100;50.994;4.538;2023-05-07T15:03:15;20.80;1.00
15991;DHT22;8100;50.994;4.538;2023-05-07T15:06:03;20.90;99.90
15991;DHT22;8100;50.994;4.538;2023-05-07T15:08:50;20.70;99.90
15991;DHT22;8100;50.994;4.538;2023-05-07T15:11:38;20.60;99.90
15991;DHT22;8100;50.994;4.538;2023-05-07T15:14:25;20.10;99.90
15991;DHT22;8100;50.994;4.538;2023-05-07T15:17:12;20.00;1.00
15991;DHT22;8100;50.994;4.538;2023-05-07T15:20:02;19.80;1.00
15991;DHT22;8100;50.994;4.538;2023-05-07T15:22:50;19.80;1.00
15991;DHT22;8100;50.994;4.538;2023-05-07T15:25:38;19.80;99.90
15991;DHT22;8100;50.994;4.538;2023-05-07T15:28:25;19.90;1.00
15991;DHT22;8100;50.994;4.538;2023-05-07T15:31:14;20.10;1.00
15991;DHT22;8100;50.994;4.538;2023-05-07T15:34:02;20.10;99.90
15991;DHT22;8100;50.994;4.538;2023-05-07T15:36:50;19.80;99.90
15991;DHT22;8100;50.994;4.538;2023-05-07T15:39:38;19.80;99.90
15991;DHT22;8100;50.994;4.538;2023-05-07T15:42:25;19.70;99.90
15991;DHT22;8100;50.994;4.538;2023-05-07T15:45:13;19.50;99.90
15991;DHT22;8100;50.994;4.538;2023-05-07T15:48:00;19.60;99.90
15991;DHT22;8100;50.994;4.538;2023-05-07T15:50:48;19.90;1.00
15991;DHT22;8100;50.994;4.538;2023-05-07T15:53:36;19.90;99.90
15991;DHT22;8100;50.994;4.538;2023-05-07T15:56:24;20.00;99.90
15991;DHT22;8100;50.994;4.538;2023-05-07T15:59:12;20.10;99.90
15991;DHT22;8100;50.994;4.538;2023-05-07T16:02:01;20.00;99.90
15991;DHT22;8100;50.994;4.538;2023-05-07T16:04:49;19.80;99.90
15991;DHT22;8100;50.994;4.538;2023-05-07T16:07:36;20.10;1.00
15991;DHT22;8100;50.994;4.538;2023-05-07T16:10:25;20.20;99.90
15991;DHT22;8100;50.994;4.538;2023-05-07T16:13:12;20.10;99.90
15991;DHT22;8100;50.994;4.538;2023-05-07T16:16:04;19.80;99.90
15991;DHT22;8100;50.994;4.538;2023-05-07T16:18:52;19.60;1.00
15991;DHT22;8100;50.994;4.538;2023-05-07T16:21:39;19.60;1.00
15991;DHT22;8100;50.994;4.538;2023-05-07T16:24:26;19.80;1.00
15991;DHT22;8100;50.994;4.538;2023-05-07T16:27:15;19.90;1.00
15991;DHT22;8100;50.994;4.538;2023-05-07T16:30:03;19.80;1.00
15991;DHT22;8100;50.994;4.538;2023-05-07T16:32:50;19.50;1.00
15991;DHT22;8100;50.994;4.538;2023-05-07T16:35:37;19.50;1.00
15991;DHT22;8100;50.994;4.538;2023-05-07T16:38:25;19.80;1.00
15991;DHT22;8100;50.994;4.538;2023-05-07T16:41:13;19.70;1.00